Dawson, Yukon Territory

8:58 PM PDT on September 19, 2014 (GMT -0700)
Dawson | Change Station
CLOSE
Current Station
Airport
Location: Dawson,
Elevation: 1214 ft
Nearby Weather Stations

Elev 1214 ft 64.04 °N, 139.13 °W | Updated 58 minutes ago

Mostly Cloudy
Mostly Cloudy
59 °F
Feels Like 59 °F
N
5
Wind Variable Wind from East

Tomorrow is forecast to be nearly the same temperature as today.

Today
High -- | Low -- °F
--% Chance of Precip.
Yesterday
High -- | Low -- °F
Precip. -- in
7:51 AM 8:27 PM
Waning Crescent, 15% visible
Pressure 29.42 in
Visibility 20.0 miles
Clouds Mostly Cloudy 5500 ft
Mostly Cloudy 23000 ft
Dew Point 43 °F
Humidity 55%
Rainfall 0.00 in
Snow Depth Not available.
UV 0 out of 12
Pollen Not available.
Air Quality Not available.
Flu Activity Not available.
METAR CYDA 200300Z 09004KT 20SM BKN055 BKN230 15/06 A2938 RMK SC5CI2 CLIMAT 16.7/4.4/0.0 LAST OBS/NXT 201300 UTC SLP961 DENSITY ALT 2100FT

More Conditions Fewer Conditions

Pressure 29.42 in
Visibility 20.0 miles
Clouds Mostly Cloudy 5500 ft
Mostly Cloudy 23000 ft
Dew Point 43 °F
Humidity 55%
Rainfall 0.00 in
Snow Depth Not available.
UV 0 out of 12
Pollen Not available.
Air Quality Not available.
Flu Activity Not available.
METAR CYDA 200300Z 09004KT 20SM BKN055 BKN230 15/06 A2938 RMK SC5CI2 CLIMAT 16.7/4.4/0.0 LAST OBS/NXT 201300 UTC SLP961 DENSITY ALT 2100FT

More Conditions Fewer Conditions

10-Day Weather Forecast

Almanac

Astronomy

Sep. 19, 2014 Rise Set
Actual Time 7:51 AM PDT 8:27 PM PDT
Civil Twilight 7:03 AM PDT 9:15 PM PDT
Nautical Twilight 6:03 AM PDT 10:14 PM PDT
Astronomical Twilight 4:53 AM PDT 11:23 PM PDT
Moon 2:33 AM PDT (9/19) 6:59 PM PDT (9/19)
Length of Visible Light 14h 11m
Length of Day
12h 35m
Tomorrow will be 6m 24s shorter.
Waning Crescent, 15% of the Moon is Illuminated
Today
Waning Crescent
Sep 24
New
Oct 1
First Quarter
Oct 8
Full
Oct 15
Last Quarter

Today's Extremes

Country Highs Country Lows

Community

WunderPhotos

Upload Photos

1,754,777 photos uploaded!

WunderBlogs® & News

Nearby

Snow Depth

Not available.

Earthquake Activity

City Distance Mag. Time & Date
No recent earthquake activity has been reported nearby.
Minimum magnitude displayed is 2.5.

Coastal Water Temperatures

Place Temperature
No Stations Reporting

Nearby Weather Stations